25 septembre 2022

Temps Code Temps Temp. Vue Base cloud Vent METAR/SPECI
13:30
V
15 °C 10 km+ - 010° 010° 13 kt METAR LFOH 251130Z AUTO 01013KT 9999 FEW024/// //////TCU 15/11 Q1019 BECMG SCT025
13:00
V
15 °C 10 km+ 4.200 ft 010° 010° 13 kt METAR LFOH 251100Z AUTO 01013KT 9999 FEW021/// SCT028/// BKN042/// ///CB 15/11 Q1019 TEMPO 4000 SHRA BECMG SCT025
12:30
V
14 °C 10 km+ 6.200 ft 040° 040° 6 kt METAR LFOH 251030Z AUTO 04006KT 9999 FEW026/// SCT042/// BKN062/// //////CB 14/12 Q1019 TEMPO 4000 SHRA BECMG SCT025
12:00
I
14 °C 4,1 km 4.700 ft 020° 020° 11 kt METAR LFOH 251000Z AUTO 02011KT 9999 4100 RA FEW035/// BKN047/// BKN060/// //////TCU 14/11 Q1019 TEMPO 4000 SHRA
11:30
V
14 °C 10 km+ 5.600 ft 030° 030° 6 kt METAR LFOH 250930Z AUTO 03006KT 9999 FEW045/// BKN056/// BKN076/// //////TCU 14/11 Q1018 TEMPO 4000 SHRA
11:00
V
14 °C 10 km+ 5.800 ft 040° 040° 8 kt METAR LFOH 250900Z AUTO 04008KT 9999 -RA SCT034 SCT046 BKN058 14/11 Q1018 TEMPO 4000 SHRA BKN025TCU
10:30
V
15 °C 10 km+ - 030° 030° 8 kt METAR LFOH 250830Z AUTO 03008KT 9999 //////TCU 15/11 Q1018 TEMPO 4000 SHRA
10:00
V
13 °C 10 km+ - 050° 050° 4 kt METAR LFOH 250800Z AUTO 05004KT 9999 FEW023 13/12 Q1018 TEMPO 4000 SHRA BKN025TCU
09:30
V
14 °C 10 km+ - 050° 050° 5 kt METAR LFOH 250730Z AUTO 05005KT 9999 FEW023 SCT058 14/12 Q1018 TEMPO 4000 SHRA BKN025TCU
09:00
V
13 °C 10 km+ - 050° 050° 6 kt METAR LFOH 250700Z AUTO 05006KT 9999 //////TCU 13/11 Q1018 TEMPO 4000 SHRA
08:30
V
13 °C 10 km+ 5.800 ft 040° 040° 7 kt METAR LFOH 250630Z AUTO 04007KT 9999 -RA FEW041/// BKN058/// ///TCU 13/11 Q1018 TEMPO 4000 SHRA
08:00
V
12 °C 10 km+ 7.400 ft 070° 070° 3 kt METAR LFOH 250600Z AUTO 07003KT 9999 FEW020/// SCT044/// BKN074/// //////CB 12/11 Q1018 TEMPO 4000 SHRA BECMG 01010KT
07:30
M
12 °C 7 km 3.300 ft 030° 030° 4 kt METAR LFOH 250530Z AUTO 03004KT 7000 -RA SCT023/// BKN033/// BKN042/// //////TCU 12/11 Q1018 TEMPO 4000 SHRA
07:00
V
12 °C 10 km+ 6.000 ft 040° 040° 4 kt METAR LFOH 250500Z AUTO 04004KT 9999 -RA FEW037/// SCT049/// OVC060/// //////CB 12/11 Q1018
06:30
M
12 °C 6 km 4.100 ft 050° 050° 8 kt METAR LFOH 250430Z AUTO 05008KT 6000 -RA FEW033/// BKN041/// BKN056/// ///CB 12/11 Q1018
06:00
V
12 °C 10 km+ 4.900 ft 040° 040° 8 kt METAR LFOH 250400Z AUTO 04008KT 9999 -RA FEW037/// SCT043/// BKN049/// ///CB 12/11 Q1017
05:30
V
13 °C 10 km+ 4.700 ft 020° 020° 9 kt METAR LFOH 250330Z AUTO 02009KT 9999 RA FEW028/// SCT041/// BKN047/// ///TCU 13/12 Q1017
05:00
V
13 °C 10 km+ 3.000 ft 010° 010° 8 kt METAR LFOH 250300Z AUTO 01008KT 9999 SCT020/// BKN030/// BKN042/// //////CB 13/12 Q1017
04:30
V
13 °C 10 km+ 5.400 ft 020° 020° 6 kt METAR LFOH 250230Z AUTO 02006KT 9999 -RA FEW047/// BKN054/// OVC064/// //////CB 13/12 Q1017
04:00
V
13 °C 9 km 4.300 ft 040° 040° 7 kt METAR LFOH 250200Z AUTO 04007KT 9000 -RA FEW017/// BKN043/// OVC052/// ///CB 13/12 Q1017
03:30
V
13 °C 10 km+ 6.000 ft 030° 030° 6 kt METAR LFOH 250130Z AUTO 03006KT 9999 RA SCT031/// BKN060/// OVC094/// //////TCU 13/12 Q1017
03:00
V
13 °C 10 km+ - 050° 050° 5 kt METAR LFOH 250100Z AUTO 05005KT 9999 //////TCU 13/12 Q1017
02:30
M
13 °C 10 km+ 2.300 ft 060° 060° 7 kt METAR LFOH 250030Z AUTO 06007KT 9999 SCT017/// BKN023/// BKN038/// ///TCU 13/12 Q1017
02:00
M
13 °C 6 km 2.800 ft 050° 050° 8 kt METAR LFOH 250000Z AUTO 05008KT 6000 RA SCT021/// BKN028/// BKN039/// ///TCU 13/11 Q1017
01:30
V
13 °C 10 km+ - 040° 040° 5 kt METAR LFOH 242330Z AUTO 04005KT 9999 //////TCU 13/12 Q1017
01:00
V
13 °C 10 km+ 6.400 ft 040° 040° 6 kt METAR LFOH 242300Z AUTO 04006KT 9999 FEW034/// BKN064/// OVC086/// ///TCU 13/11 Q1017
00:30
V
13 °C 10 km+ 5.000 ft 040° 040° 9 kt METAR LFOH 242230Z AUTO 04009KT 9999 FEW034/// BKN050/// BKN072/// //////CB 13/11 Q1017
00:00
V
13 °C 10 km+ 8.200 ft 050° 050° 9 kt METAR LFOH 242200Z AUTO 05009KT 9999 -RADZ FEW035/// SCT047/// BKN082/// //////TCU 13/12 Q1017

24 septembre 2022

Temps Code Temps Temp. Vue Base cloud Vent METAR/SPECI
23:30
V
13 °C 10 km+ - 040° 040° 7 kt METAR LFOH 242130Z AUTO 04007KT 9999 -RA //////CB 13/12 Q1017
23:00
V
13 °C 10 km+ - 030° 030° 9 kt METAR LFOH 242100Z AUTO 03009KT 9999 -RA ///CB 13/12 Q1017
22:30
V
13 °C 10 km+ - 020° 020° 11 kt METAR LFOH 242030Z AUTO 02011KT 9999 RA ///CB 13/11 Q1017
22:00
M
13 °C 6 km 3.900 ft 050° 050° 13 kt METAR LFOH 242000Z AUTO 05013KT 6000 RA FEW030/// BKN039/// BKN058/// ///CB 13/11 Q1017
21:30
V
14 °C 10 km+ - 040° 040° 9 kt METAR LFOH 241930Z AUTO 04009KT 9999 //////CB 14/11 Q1016
21:00
V
13 °C 10 km+ 6.000 ft 050° 050° 10 kt METAR LFOH 241900Z AUTO 05010KT 9999 -RADZ FEW037/// SCT046/// BKN060/// //////CB 13/11 Q1016
20:30
V
13 °C 10 km+ 7.200 ft 020° 020° 4 kt METAR LFOH 241830Z AUTO 02004KT 350V050 9999 -RA SCT033/// SCT047/// OVC072/// //////CB 13/12 Q1016
20:00
M
13 °C 6 km 2.900 ft 040° 040° 5 kt METAR LFOH 241800Z AUTO 04005KT 350V060 6000 RA SCT022/// BKN029/// BKN056/// //////CB 13/12 Q1016 TEMPO 36017G27KT 3000 SHRA BKN012 BKN025TCU
19:30
V
13 °C 10 km+ 7.000 ft 040° 040° 7 kt METAR LFOH 241730Z AUTO 04007KT 9999 -RA FEW036/// SCT058/// OVC070/// //////CB 13/11 Q1015 TEMPO 36017G27KT 3000 SHRA BKN012 BKN025TCU
19:00
V
13 °C 10 km+ 5.400 ft 010° 010° 7 kt METAR LFOH 241700Z AUTO 01007KT 9999 -RA FEW022/// BKN054/// OVC066/// //////CB 13/12 Q1015 TEMPO 36017G27KT 3000 SHRA BKN012 BKN025TCU
18:30
V
13 °C 10 km+ 7.200 ft 010° 010° 6 kt METAR LFOH 241630Z AUTO 01006KT 9999 -RA FEW021/// SCT060/// OVC072/// ///TCU 13/12 Q1015 TEMPO 36017G27KT 3000 SHRA BKN012 BKN025TCU
18:00
M
13 °C 7 km 6.000 ft 040° 040° 7 kt METAR LFOH 241600Z AUTO 04007KT 7000 RA SCT014/// SCT035/// BKN060/// //////CB 13/12 Q1015 TEMPO 36017G27KT 3000 SHRA BKN012 BKN025TCU
17:30
V
13 °C 8 km 3.500 ft 020° 020° 8 kt METAR LFOH 241530Z AUTO 02008KT 8000 RA SCT013/// SCT025/// BKN035/// //////CB 13/13 Q1015 TEMPO 36017G27KT 3000 SHRA BKN012 BKN025TCU
17:00
M
13 °C 7 km 3.300 ft 010° 010° 10 kt METAR LFOH 241500Z AUTO 01010KT 7000 RA FEW013/// BKN033/// OVC056/// //////CB 13/12 Q1015 TEMPO 36017G27KT 3000 SHRA BKN012 BKN025TCU
16:30
M
13 °C 6 km 3.200 ft 020° 020° 12 kt METAR LFOH 241430Z AUTO 02012KT 6000 RA SCT011/// SCT018/// BKN032/// //////CB 13/12 Q1015 TEMPO 36017G27KT 3000 SHRA BKN012 BKN025TCU
16:00
M
14 °C 9 km 1.900 ft 010° 010° 10 kt METAR LFOH 241400Z AUTO 01010KT 9000 -RA SCT012/// BKN019/// BKN045/// ///TCU 14/13 Q1015 TEMPO 36017G27KT 3000 SHRA BKN012 BKN025TCU
15:30
V
15 °C 10 km+ 7.600 ft 020° 020° 9 kt METAR LFOH 241330Z AUTO 02009KT 9999 -RA FEW019/// OVC076/// ///TCU 15/12 Q1015 TEMPO 36017G27KT 3000 SHRA BKN012 BKN025TCU
15:00
V
15 °C 10 km+ 6.600 ft 020° 020° 12 kt METAR LFOH 241300Z AUTO 02012KT 9999 -RA FEW019 SCT030 BKN066 15/13 Q1015 TEMPO 3000 SHRA BKN012 BKN025TCU
14:30
V
15 °C 10 km+ 6.400 ft 020° 020° 12 kt METAR LFOH 241230Z AUTO 02012KT 9999 -RA FEW021/// SCT035/// BKN064/// //////TCU 15/12 Q1015 TEMPO 3000 SHRA BKN012 BKN025TCU
14:00
V
15 °C 10 km+ 7.800 ft 020° 020° 11 kt METAR LFOH 241200Z AUTO 02011KT 9999 FEW023 BKN078 OVC088 15/11 Q1015 TEMPO 3000 SHRA BKN012 BKN025TCU
13:30
V
16 °C 10 km+ 3.000 ft 030° 030° 10 kt METAR LFOH 241130Z AUTO 03010KT 9999 SCT021 BKN030 BKN066 16/11 Q1015 TEMPO 3000 SHRA BKN012 BKN025TCU BKN040
13:00
M
16 °C 10 km+ 1.900 ft 020° 020° 8 kt METAR LFOH 241100Z AUTO 02008KT 9999 BKN019 BKN026 BKN033 16/13 Q1015 TEMPO 3000 SHRA BKN012 BKN025TCU BKN040
12:30
M
14 °C 10 km+ 1.700 ft 040° 040° 10 kt METAR LFOH 241030Z AUTO 04010KT 9999 BKN017 BKN024 OVC064 14/10 Q1015 TEMPO 3000 SHRA BKN012 BKN025TCU BKN040
12:00
M
14 °C 10 km+ 1.500 ft 020° 020° 9 kt METAR LFOH 241000Z AUTO 02009KT 9999 BKN015/// BKN023/// BKN032/// //////TCU 14/12 Q1015 TEMPO 3000 SHRA BKN012 BKN025TCU BKN040
11:30
V
15 °C 10 km+ 4.100 ft 020° 020° 9 kt METAR LFOH 240930Z AUTO 02009KT 9999 -RA FEW024 BKN041 BKN050 15/11 Q1015 TEMPO 3000 SHRA BKN012 BKN025TCU BKN040
11:00
V
15 °C 10 km+ 7.800 ft 020° 020° 10 kt METAR LFOH 240900Z AUTO 02010KT 9999 FEW023 BKN078 OVC120 15/11 Q1014 TEMPO 3000 SHRA BKN012 BKN025TCU BKN040
10:30
V
15 °C 10 km+ - 020° 020° 11 kt METAR LFOH 240830Z AUTO 02011KT CAVOK 15/11 Q1014 TEMPO 3000 SHRA BKN012 BKN025TCU BKN040
10:00
V
15 °C 10 km+ - 020° 020° 11 kt METAR LFOH 240800Z AUTO 02011KT CAVOK 15/11 Q1014 TEMPO 3000 SHRA BKN012 BKN025TCU BKN040
09:30
V
14 °C 10 km+ 9.200 ft 010° 010° 13 kt METAR LFOH 240730Z AUTO 01013KT 9999 FEW017 BKN092 OVC110 14/11 Q1014 TEMPO 3000 SHRA BKN012 BKN025TCU BKN040
09:00
V
14 °C 10 km+ 9.600 ft 010° 010° 14 kt METAR LFOH 240700Z AUTO 01014KT 9999 FEW018 OVC096 14/12 Q1013 TEMPO 3000 SHRA BKN012 BKN025TCU BKN040
08:30
M
14 °C 10 km+ 1.700 ft 010° 010° 12 kt METAR LFOH 240630Z AUTO 01012KT 9999 BKN017/// OVC096/// ///TCU 14/11 Q1013 TEMPO 3000 SHRA BKN012 BKN025TCU BKN040
08:00
M
14 °C 10 km+ 1.600 ft 010° 010° 13 kt METAR LFOH 240600Z AUTO 01013KT 9999 OVC016 14/12 Q1013 TEMPO 3000 SHRA BKN012 BKN025TCU BKN040
07:30
M
14 °C 10 km+ 2.300 ft 010° 010° 8 kt METAR LFOH 240530Z AUTO 01008KT 9999 SCT015/// BKN023/// OVC037/// //////TCU 14/13 Q1012
07:00
V
14 °C 10 km+ 8.800 ft 030° 030° 10 kt METAR LFOH 240500Z AUTO 03010KT 9999 FEW039/// SCT068/// OVC088/// ///CB 14/12 Q1012
06:30
V
14 °C 10 km+ 8.000 ft 020° 020° 11 kt METAR LFOH 240430Z AUTO 02011KT 9999 FEW043 OVC080 14/12 Q1012
06:00
V
15 °C 10 km+ 8.000 ft 010° 010° 14 kt METAR LFOH 240400Z AUTO 01014KT 9999 FEW013/// OVC080/// //////TCU 15/12 Q1012
05:30
M
15 °C 10 km+ 1.400 ft 010° 010° 16 kt METAR LFOH 240330Z AUTO 01016KT 9999 BKN014/// BKN019/// BKN043/// //////CB 15/13 Q1011
05:00
M
15 °C 10 km+ 1.200 ft 020° 020° 10 kt METAR LFOH 240300Z AUTO 02010KT 9999 BKN012/// BKN020/// BKN039/// //////TCU 15/13 Q1012
04:30
V
15 °C 10 km+ 6.800 ft 010° 010° 13 kt METAR LFOH 240230Z AUTO 01013KT 9999 SCT014/// OVC068/// ///TCU 15/13 Q1012
04:00
M
15 °C 10 km+ 1.400 ft 010° 010° 13 kt METAR LFOH 240200Z AUTO 01013KT 9999 BKN014/// BKN020/// BKN046/// //////CB 15/13 Q1012
03:30
M
15 °C 6 km 1.400 ft 020° 020° 11 kt METAR LFOH 240130Z AUTO 02011KT 6000 RA BKN014/// BKN024/// OVC034/// ///CB 15/13 Q1012
03:00
M
15 °C 10 km+ 1.100 ft 360° 360° 9 kt METAR LFOH 240100Z AUTO 36009KT 9999 BKN011/// BKN016/// OVC023/// //////CB 15/14 Q1012
02:30
M
15 °C 10 km+ 1.200 ft 350° 350° 5 kt METAR LFOH 240030Z AUTO 35005KT 240V030 9999 BKN012/// BKN021/// OVC029/// ///TCU 15/13 Q1012
02:00
M
15 °C 10 km+ 1.100 ft 210° 210° 7 kt METAR LFOH 240000Z AUTO 21007KT 9999 BKN011 OVC021 15/13 Q1013
01:30
M
14 °C 10 km+ 1.000 ft 220° 220° 8 kt METAR LFOH 232330Z AUTO 22008KT 9999 -RA BKN010 BKN014 OVC024 14/13 Q1013
01:00
I
14 °C 10 km+ 800 ft 220° 220° 8 kt METAR LFOH 232300Z AUTO 22008KT 9999 -RA OVC008 14/13 Q1013
00:30
I
14 °C 10 km+ 800 ft 220° 220° 9 kt METAR LFOH 232230Z AUTO 22009KT 9999 OVC008 14/13 Q1013
00:00
M
14 °C 10 km+ 1.200 ft 220° 220° 7 kt METAR LFOH 232200Z AUTO 22007KT 180V240 9999 -RA BKN012 BKN018 OVC024 14/12 Q1014

23 septembre 2022

Temps Code Temps Temp. Vue Base cloud Vent METAR/SPECI
23:30
M
13 °C 10 km+ 1.500 ft 210° 210° 7 kt METAR LFOH 232130Z AUTO 21007KT 9999 -RA BKN015 OVC023 13/12 Q1014
23:00
M
14 °C 9 km 1.300 ft 200° 200° 8 kt METAR LFOH 232100Z AUTO 20008KT 9000 -RA BKN013 OVC027 14/12 Q1014
22:30
M
14 °C 8 km 2.600 ft 210° 210° 7 kt METAR LFOH 232030Z AUTO 21007KT 8000 -RA FEW015/// OVC026/// //////TCU 14/12 Q1014
22:00
M
14 °C 8 km 2.800 ft 210° 210° 7 kt METAR LFOH 232000Z AUTO 21007KT 180V250 8000 -RA FEW012/// BKN028/// OVC033/// //////TCU 14/12 Q1014
21:30
M
14 °C 7 km 3.700 ft 200° 200° 10 kt METAR LFOH 231930Z AUTO 20010KT 7000 RA FEW020/// BKN037/// OVC056/// //////TCU 14/12 Q1014
21:00
V
14 °C 10 km+ 3.800 ft 220° 220° 11 kt METAR LFOH 231900Z AUTO 22011KT 9999 RA BKN038/// OVC074/// ///TCU 14/11 Q1015
20:30
V
14 °C 10 km+ - 220° 220° 12 kt METAR LFOH 231830Z AUTO 22012KT 9999 -RA //////TCU 14/11 Q1014
20:00
V
15 °C 10 km+ - 220° 220° 13 kt METAR LFOH 231800Z AUTO 22013KT 9999 -RA ///TCU 15/12 Q1014 TEMPO 4000 SHRA BKN008 BKN013TCU OVC030
19:30
V
15 °C 10 km+ - 220° 220° 11 kt METAR LFOH 231730Z AUTO 22011KT 9999 -RA ///TCU 15/11 Q1014 TEMPO 4000 SHRA BKN008 BKN013TCU OVC030
19:00
V
15 °C 10 km+ 8.600 ft 210° 210° 7 kt METAR LFOH 231700Z AUTO 21007KT 180V240 9999 -RA FEW025 OVC086 15/12 Q1014 TEMPO 4000 SHRA BKN008 BKN013TCU OVC030
18:30
V
16 °C 10 km+ 8.200 ft 220° 220° 6 kt METAR LFOH 231630Z AUTO 22006KT 9999 -RA FEW024/// OVC082/// //////TCU 16/12 Q1014 TEMPO 4000 SHRA BKN008 BKN013TCU OVC030
18:00
V
16 °C 10 km+ - Var Var 3 kt METAR LFOH 231600Z AUTO VRB03KT 9999 //////TCU 16/12 Q1014 TEMPO 4000 SHRA BKN008 BKN013TCU OVC030
17:30
V
16 °C 10 km+ 8.600 ft 170° 170° 4 kt METAR LFOH 231530Z AUTO 17004KT 9999 -RA FEW018/// SCT074/// OVC086/// ///TCU 16/12 Q1014 TEMPO 4000 SHRA BKN008 BKN013TCU OVC030
17:00
V
16 °C 10 km+ 7.200 ft 170° 170° 3 kt METAR LFOH 231500Z AUTO 17003KT 130V200 9999 FEW025/// BKN072/// OVC082/// //////TCU 16/13 Q1015 TEMPO 4000 SHRA
16:30
V
15 °C 10 km+ - 190° 190° 5 kt METAR LFOH 231430Z AUTO 19005KT 160V280 9999 -RA //////TCU 15/12 Q1015 TEMPO 4000 SHRA
16:00
V
16 °C 10 km+ 8.600 ft 200° 200° 4 kt METAR LFOH 231400Z AUTO 20004KT 9999 -RA FEW034/// BKN086/// OVC100/// //////TCU 16/13 Q1015 TEMPO 4000 SHRA
15:30
V
16 °C 10 km+ 6.200 ft 190° 190° 5 kt METAR LFOH 231330Z AUTO 19005KT 150V220 9999 -RA FEW012/// SCT035/// BKN062/// ///TCU 16/13 Q1016 TEMPO 4000 SHRA
15:00
V
16 °C 10 km+ 4.000 ft 170° 170° 4 kt METAR LFOH 231300Z AUTO 17004KT 120V200 9999 -RA FEW030/// BKN040/// BKN054/// ///TCU 16/14 Q1015 TEMPO 4000 SHRA
14:30
V
16 °C 10 km+ 7.400 ft 170° 170° 4 kt METAR LFOH 231230Z AUTO 17004KT 130V220 9999 -RA FEW031 SCT060 OVC074 16/14 Q1016 TEMPO 4000 SHRA SCT016 BKN020TCU OVC070
14:00
V
16 °C 10 km+ 7.800 ft 170° 170° 4 kt METAR LFOH 231200Z AUTO 17004KT 130V200 9999 -RA FEW014 SCT058 OVC078 16/13 Q1016 TEMPO 4000 SHRA BKN020TCU OVC070
Données plus anciennes

Nous et des tiers suivons ton comportement sur Internet sur notre site Web à l'aide de cookies. Si tu continues, nous supposons que tu acceptes notre politique en matière de cookies. Apprendre plus